Time;durP1;ratioP1;P1;durP2;ratioP2;P2;SDS_P1;SDS_P2;PMS_P1;PMS_P2;Temp;Humidity;BMP_temperature;BMP_pressure;BME280_temperature;BME280_humidity;BME280_pressure;Samples;Min_cycle;Max_cycle;Signal;HPM_P1;HPM_P2
2023/03/01 00:02:19;;;;;;;35.2;23;;;;;;;;;;;;;
2023/03/01 00:04:48;;;;;;;39.6;25.3;;;;;;;;;;;;;
2023/03/01 00:07:13;;;;;;;42.6;26.3;;;;;;;;;;;;;
2023/03/01 00:09:41;;;;;;;39.4;25.7;;;;;;;;;;;;;
2023/03/01 00:12:06;;;;;;;44.8;28;;;;;;;;;;;;;
2023/03/01 00:14:31;;;;;;;44.4;27.6;;;;;;;;;;;;;
2023/03/01 00:16:57;;;;;;;45.7;26.9;;;;;;;;;;;;;
2023/03/01 00:19:27;;;;;;;45;27;;;;;;;;;;;;;
2023/03/01 00:21:53;;;;;;;45.5;28;;;;;;;;;;;;;
2023/03/01 00:24:19;;;;;;;44.8;27;;;;;;;;;;;;;
2023/03/01 00:26:46;;;;;;;43.4;27;;;;;;;;;;;;;
2023/03/01 00:29:10;;;;;;;44.6;28.1;;;;;;;;;;;;;
2023/03/01 00:31:36;;;;;;;42.9;27.1;;;;;;;;;;;;;
2023/03/01 00:34:01;;;;;;;41.6;26.5;;;;;;;;;;;;;
2023/03/01 00:36:28;;;;;;;43;26.5;;;;;;;;;;;;;
2023/03/01 00:38:58;;;;;;;41.6;25.8;;;;;;;;;;;;;
2023/03/01 00:41:29;;;;;;;43.2;26.5;;;;;;;;;;;;;
2023/03/01 00:43:54;;;;;;;40.6;26.4;;;;;;;;;;;;;
2023/03/01 00:46:19;;;;;;;42.6;27.1;;;;;;;;;;;;;
2023/03/01 00:48:46;;;;;;;41.6;26.8;;;;;;;;;;;;;
2023/03/01 00:51:11;;;;;;;40.4;26;;;;;;;;;;;;;
2023/03/01 00:53:40;;;;;;;44;26.9;;;;;;;;;;;;;
2023/03/01 00:56:05;;;;;;;41.2;25.7;;;;;;;;;;;;;
2023/03/01 00:58:32;;;;;;;41.2;25.9;;;;;;;;;;;;;
2023/03/01 01:00:57;;;;;;;41.6;25.9;;;;;;;;;;;;;
2023/03/01 01:03:24;;;;;;;39.5;24.4;;;;;;;;;;;;;
2023/03/01 01:05:47;;;;;;;40.4;25.2;;;;;;;;;;;;;
2023/03/01 01:08:13;;;;;;;39.3;25;;;;;;;;;;;;;
2023/03/01 01:10:38;;;;;;;39;24.6;;;;;;;;;;;;;
2023/03/01 01:13:03;;;;;;;41.5;25;;;;;;;;;;;;;
2023/03/01 01:15:28;;;;;;;38.2;24.7;;;;;;;;;;;;;
2023/03/01 01:17:55;;;;;;;38.5;25.5;;;;;;;;;;;;;
2023/03/01 01:20:20;;;;;;;40.5;24.7;;;;;;;;;;;;;
2023/03/01 01:22:49;;;;;;;37.1;23.8;;;;;;;;;;;;;
2023/03/01 01:25:14;;;;;;;38.1;24.5;;;;;;;;;;;;;
2023/03/01 01:27:39;;;;;;;37.1;23.6;;;;;;;;;;;;;
2023/03/01 01:30:05;;;;;;;41.9;27;;;;;;;;;;;;;
2023/03/01 01:32:32;;;;;;;39.2;25.2;;;;;;;;;;;;;
2023/03/01 01:34:57;;;;;;;37.3;23.3;;;;;;;;;;;;;
2023/03/01 01:37:29;;;;;;;36.2;23;;;;;;;;;;;;;
2023/03/01 01:39:48;;;;;;;36.3;23.6;;;;;;;;;;;;;
2023/03/01 01:42:13;;;;;;;34.2;22;;;;;;;;;;;;;
2023/03/01 01:44:39;;;;;;;37.6;23.2;;;;;;;;;;;;;
2023/03/01 01:47:04;;;;;;;39.8;24.6;;;;;;;;;;;;;
2023/03/01 01:49:29;;;;;;;38.2;24.1;;;;;;;;;;;;;
2023/03/01 01:51:54;;;;;;;36.8;23.4;;;;;;;;;;;;;
2023/03/01 01:54:19;;;;;;;37.1;22.9;;;;;;;;;;;;;
2023/03/01 01:56:46;;;;;;;35.8;22.8;;;;;;;;;;;;;
2023/03/01 01:59:11;;;;;;;31.8;21.1;;;;;;;;;;;;;
2023/03/01 02:01:37;;;;;;;28.8;18.5;;;;;;;;;;;;;
2023/03/01 02:04:02;;;;;;;31.3;19.1;;;;;;;;;;;;;
2023/03/01 02:06:29;;;;;;;35.8;22.7;;;;;;;;;;;;;
2023/03/01 02:08:54;;;;;;;40.7;24.3;;;;;;;;;;;;;
2023/03/01 02:11:19;;;;;;;35.2;22.8;;;;;;;;;;;;;
2023/03/01 02:13:44;;;;;;;39.7;24.2;;;;;;;;;;;;;
2023/03/01 02:16:12;;;;;;;37.3;24.3;;;;;;;;;;;;;
2023/03/01 02:18:37;;;;;;;40.4;25.4;;;;;;;;;;;;;
2023/03/01 02:21:02;;;;;;;39.6;25.1;;;;;;;;;;;;;
2023/03/01 02:23:29;;;;;;;39.9;24.5;;;;;;;;;;;;;
2023/03/01 02:25:54;;;;;;;40.3;25;;;;;;;;;;;;;
2023/03/01 02:28:19;;;;;;;44.1;26.8;;;;;;;;;;;;;
2023/03/01 02:31:43;;;;;;;40.6;25.1;;;;;;;;;;;;;
2023/03/01 02:33:10;;;;;;;41.4;25.9;;;;;;;;;;;;;
2023/03/01 02:35:36;;;;;;;42;27;;;;;;;;;;;;;
2023/03/01 02:38:02;;;;;;;38.9;24.9;;;;;;;;;;;;;
2023/03/01 02:40:27;;;;;;;40.7;26;;;;;;;;;;;;;
2023/03/01 02:42:55;;;;;;;40.4;25.5;;;;;;;;;;;;;
2023/03/01 02:45:20;;;;;;;40;25.8;;;;;;;;;;;;;
2023/03/01 02:47:46;;;;;;;32.9;20.6;;;;;;;;;;;;;
2023/03/01 02:50:12;;;;;;;34.9;20.9;;;;;;;;;;;;;
2023/03/01 02:52:37;;;;;;;38.5;25.6;;;;;;;;;;;;;
2023/03/01 02:55:02;;;;;;;41.7;25.6;;;;;;;;;;;;;
2023/03/01 02:57:29;;;;;;;42.6;26.5;;;;;;;;;;;;;
2023/03/01 02:59:53;;;;;;;42.6;26.6;;;;;;;;;;;;;
2023/03/01 03:02:20;;;;;;;42.9;26.3;;;;;;;;;;;;;
2023/03/01 03:04:44;;;;;;;42.9;26.9;;;;;;;;;;;;;
2023/03/01 03:07:10;;;;;;;42.7;27;;;;;;;;;;;;;
2023/03/01 03:09:35;;;;;;;42.4;26.8;;;;;;;;;;;;;
2023/03/01 03:12:01;;;;;;;43.9;27;;;;;;;;;;;;;
2023/03/01 03:14:26;;;;;;;42.3;26.7;;;;;;;;;;;;;
2023/03/01 03:16:54;;;;;;;42.4;26.5;;;;;;;;;;;;;
2023/03/01 03:19:19;;;;;;;42.9;26.5;;;;;;;;;;;;;
2023/03/01 03:21:45;;;;;;;45.7;27.8;;;;;;;;;;;;;
2023/03/01 03:24:11;;;;;;;47.1;28.2;;;;;;;;;;;;;
2023/03/01 03:26:37;;;;;;;44.3;27.8;;;;;;;;;;;;;
2023/03/01 03:29:02;;;;;;;44.1;27.9;;;;;;;;;;;;;
2023/03/01 03:31:27;;;;;;;45.8;27.6;;;;;;;;;;;;;
2023/03/01 03:33:53;;;;;;;46.8;28.4;;;;;;;;;;;;;
2023/03/01 03:36:20;;;;;;;47.1;28;;;;;;;;;;;;;
2023/03/01 03:38:45;;;;;;;48.7;28.6;;;;;;;;;;;;;
2023/03/01 03:41:12;;;;;;;46.7;28.4;;;;;;;;;;;;;
2023/03/01 03:43:38;;;;;;;46.5;28.8;;;;;;;;;;;;;
2023/03/01 03:46:05;;;;;;;45.6;27.7;;;;;;;;;;;;;
2023/03/01 03:48:28;;;;;;;47.8;27.7;;;;;;;;;;;;;
2023/03/01 03:50:54;;;;;;;46.7;28.5;;;;;;;;;;;;;
2023/03/01 03:53:19;;;;;;;46.5;28.7;;;;;;;;;;;;;
2023/03/01 03:55:48;;;;;;;44.4;27.7;;;;;;;;;;;;;
2023/03/01 03:58:10;;;;;;;46.4;28.6;;;;;;;;;;;;;
2023/03/01 04:02:38;;;;;;;49.5;29.6;;;;;;;-0.02;85.88086;939.8322;;;;
2023/03/01 04:05:03;;;;;;;46.1;29.7;;;;;;;0.01;85.63184;939.8131;;;;
2023/03/01 04:07:28;;;;;;;47.8;29.2;;;;;;;0.03;85.53516;939.801;;;;
2023/03/01 04:09:59;;;;;;;45.4;28.5;;;;;;;0.04;85.6709;939.7986;;;;
2023/03/01 04:12:25;;;;;;;42.3;28.6;;;;;;;-0.01;85.7373;939.6912;;;;
2023/03/01 04:14:53;;;;;;;50.3;29.2;;;;;;;-0.13;86.01465;939.7463;;;;
2023/03/01 04:17:18;;;;;;;46.6;28.4;;;;;;;-0.12;86.18359;939.7512;;;;
2023/03/01 04:19:43;;;;;;;44.2;28.7;;;;;;;-0.25;86.70313;939.7516;;;;
2023/03/01 04:22:17;;;;;;;43.4;28.3;;;;;;;-0.13;86.71582;939.7986;;;;
2023/03/01 04:24:36;;;;;;;45;27.7;;;;;;;-0.04;86.73438;939.7672;;;;
2023/03/01 04:27:02;;;;;;;44.6;27.7;;;;;;;0.04;86.39453;939.7862;;;;
2023/03/01 04:29:30;;;;;;;40.3;26.2;;;;;;;0.12;86.01953;939.8091;;;;
2023/03/01 04:31:55;;;;;;;42.5;25.8;;;;;;;0.13;85.59961;939.7651;;;;
2023/03/01 04:34:22;;;;;;;38.2;24.7;;;;;;;0.09;85.47949;939.7349;;;;
2023/03/01 04:36:47;;;;;;;40.1;25.7;;;;;;;0.14;85.26758;939.6779;;;;
2023/03/01 04:39:14;;;;;;;43.2;26.7;;;;;;;0.18;85.29688;939.6869;;;;
2023/03/01 04:41:40;;;;;;;41.1;26.8;;;;;;;0.17;85.0498;939.6864;;;;
2023/03/01 04:44:08;;;;;;;41.9;27;;;;;;;0.13;84.86621;939.712;;;;
2023/03/01 04:46:32;;;;;;;41.6;27.4;;;;;;;0.07;84.60645;939.6486;;;;
2023/03/01 04:48:59;;;;;;;41.4;27.3;;;;;;;0.02;84.96484;939.6627;;;;
2023/03/01 04:51:24;;;;;;;41.8;27;;;;;;;-0.1;85.17383;939.6333;;;;
2023/03/01 04:53:51;;;;;;;43.7;28.6;;;;;;;-0.08;85.17871;939.6456;;;;
2023/03/01 04:56:17;;;;;;;44.7;28.4;;;;;;;-0.09;85.34375;939.6294;;;;
2023/03/01 04:58:45;;;;;;;43.9;28.3;;;;;;;-0.07;85.64844;939.6379;;;;
2023/03/01 05:01:16;;;;;;;44.6;28.5;;;;;;;0.07;85.56641;939.6401;;;;
2023/03/01 05:03:47;;;;;;;45.1;28.6;;;;;;;0.16;85.27051;939.4722;;;;
2023/03/01 05:22:50;;;;;;;46.2;29.7;;;;;;;-0.16;85.97363;939.5175;;;;
2023/03/01 05:25:21;;;;;;;45.4;29.4;;;;;;;-0.13;86.34863;939.5184;;;;
2023/03/01 05:27:50;;;;;;;45.8;30;;;;;;;-0.05;85.96191;939.5035;;;;
2023/03/01 05:30:22;;;;;;;43.5;28.7;;;;;;;0.01;85.47559;939.515;;;;
2023/03/01 05:32:55;;;;;;;42.5;27.8;;;;;;;0.12;85.42871;939.4709;;;;
2023/03/01 05:35:15;;;;;;;44.7;29.4;;;;;;;0.14;85.32324;939.3591;;;;
2023/03/01 05:37:45;;;;;;;43.7;28.2;;;;;;;0.12;85.39551;939.3159;;;;
2023/03/01 05:40:18;;;;;;;45.4;28.5;;;;;;;0.12;85.39551;939.4426;;;;
2023/03/01 05:42:43;;;;;;;40.9;27.1;;;;;;;0.09;85.53516;939.4171;;;;
2023/03/01 05:45:09;;;;;;;43.7;26.7;;;;;;;-0.07;86.07227;939.4489;;;;
2023/03/01 05:47:37;;;;;;;45.1;27.1;;;;;;;-0.09;86.67871;939.3997;;;;
2023/03/01 05:50:02;;;;;;;43.3;26.8;;;;;;;0.01;86.41113;939.3942;;;;
2023/03/01 05:52:27;;;;;;;40.2;25.9;;;;;;;-0.02;86.31641;939.3731;;;;
2023/03/01 05:54:52;;;;;;;39.7;25.2;;;;;;;-0.2;86.58984;939.3649;;;;
2023/03/01 05:57:24;;;;;;;39.1;25;;;;;;;-0.11;86.68652;939.3388;;;;
2023/03/01 05:59:49;;;;;;;42.5;26.1;;;;;;;-0.02;86.57129;939.3141;;;;
2023/03/01 06:02:19;;;;;;;40.1;26.2;;;;;;;-0.01;86.20703;939.3298;;;;
2023/03/01 06:04:53;;;;;;;40.2;24.7;;;;;;;-0.16;86.73047;939.3228;;;;
2023/03/01 06:07:19;;;;;;;37.4;25.2;;;;;;;-0.22;87.41016;939.2762;;;;
2023/03/01 06:09:44;;;;;;;39;25.3;;;;;;;-0.13;87.42676;939.2944;;;;
2023/03/01 06:12:15;;;;;;;42.5;26.3;;;;;;;-0.05;87.14258;939.2719;;;;
2023/03/01 06:14:45;;;;;;;40.5;26.2;;;;;;;-0.17;87.3877;939.2349;;;;
2023/03/01 06:17:09;;;;;;;39.6;25.3;;;;;;;-0.12;87.40625;939.2523;;;;
2023/03/01 06:19:35;;;;;;;38.1;25.1;;;;;;;-0.19;87.45996;939.2017;;;;
2023/03/01 06:22:00;;;;;;;40.3;24.5;;;;;;;-0.14;87.59375;939.2434;;;;
2023/03/01 06:24:28;;;;;;;41.3;26.4;;;;;;;0.01;87.29199;939.2347;;;;
2023/03/01 06:26:52;;;;;;;40.8;25.6;;;;;;;0.08;86.83887;939.2249;;;;
2023/03/01 06:29:22;;;;;;;39;24.6;;;;;;;0.06;86.14453;939.2551;;;;
2023/03/01 06:31:47;;;;;;;37.9;23.4;;;;;;;-0.02;86.62891;939.2449;;;;
2023/03/01 06:34:14;;;;;;;41;25.4;;;;;;;0.14;86.45996;939.1948;;;;
2023/03/01 06:36:39;;;;;;;36.9;24.2;;;;;;;0.05;85.88379;939.3103;;;;
2023/03/01 06:39:07;;;;;;;41.8;25;;;;;;;-0.17;86.82031;939.373;;;;
2023/03/01 06:41:32;;;;;;;36.6;23.9;;;;;;;-0.09;87.45801;939.3638;;;;
2023/03/01 06:44:00;;;;;;;40.2;24.7;;;;;;;-0.05;86.91113;939.3473;;;;
2023/03/01 06:46:25;;;;;;;36.5;24;;;;;;;-0.06;86.85156;939.3011;;;;
2023/03/01 06:49:15;;;;;;;35.7;23.4;;;;;;;0.03;86.79395;939.2922;;;;
2023/03/01 06:51:38;;;;;;;38.7;22.8;;;;;;;0.14;86.10352;939.3463;;;;
2023/03/01 06:54:08;;;;;;;38.7;24.7;;;;;;;0.25;85.51172;939.3329;;;;
2023/03/01 06:56:33;;;;;;;36;24;;;;;;;0.36;85.78125;939.3016;;;;
2023/03/01 06:58:59;;;;;;;37.8;23.5;;;;;;;0.5;84.71582;939.2273;;;;
2023/03/01 07:01:24;;;;;;;37.1;22.9;;;;;;;0.56;84.17969;939.1908;;;;
2023/03/01 07:03:51;;;;;;;38.7;23.4;;;;;;;0.66;84.16602;939.195;;;;
2023/03/01 07:06:17;;;;;;;37.1;23;;;;;;;0.75;83.67285;939.1508;;;;
2023/03/01 07:08:42;;;;;;;38.7;23.6;;;;;;;0.83;83.77832;939.0963;;;;
2023/03/01 07:11:07;;;;;;;39.4;26.1;;;;;;;0.94;83.49609;939.0978;;;;
2023/03/01 07:13:35;;;;;;;36.2;23.5;;;;;;;0.96;82.54004;939.0768;;;;
2023/03/01 07:16:02;;;;;;;38;24.8;;;;;;;0.75;82.67969;939.0715;;;;
2023/03/01 07:18:34;;;;;;;173.2;77.1;;;;;;;0.89;82.49609;939.0567;;;;
2023/03/01 07:21:01;;;;;;;184.1;69.3;;;;;;;0.92;82.15332;939.0234;;;;
2023/03/01 07:23:26;;;;;;;71.5;35.4;;;;;;;1.14;82.02832;939.0259;;;;
2023/03/01 07:25:56;;;;;;;38.5;23.9;;;;;;;1.22;81.07129;939.0158;;;;
2023/03/01 07:28:28;;;;;;;32.1;21.6;;;;;;;1.2;80.96777;939.0616;;;;
2023/03/01 07:30:53;;;;;;;36;22.5;;;;;;;1.21;81.00488;939.0485;;;;
2023/03/01 07:33:18;;;;;;;38.4;26.1;;;;;;;1.3;80.75391;939.0084;;;;
2023/03/01 07:35:43;;;;;;;34;22.2;;;;;;;1.44;80.5332;939.0014;;;;
2023/03/01 07:38:08;;;;;;;34.6;23;;;;;;;1.61;80.31836;939.0225;;;;
2023/03/01 07:40:39;;;;;;;37.8;23.8;;;;;;;1.78;79.45801;939.0623;;;;
2023/03/01 07:43:08;;;;;;;34;21.9;;;;;;;1.99;78.81445;939.0187;;;;
2023/03/01 07:45:33;;;;;;;32.8;21.1;;;;;;;2.05;77.4375;939.043;;;;
2023/03/01 07:47:58;;;;;;;29.9;19.8;;;;;;;2.15;76.96387;939.0282;;;;
2023/03/01 07:50:25;;;;;;;32.1;21;;;;;;;2.3;76.38672;939.0536;;;;
2023/03/01 07:52:52;;;;;;;29.7;20.1;;;;;;;2.52;75.64063;939.0889;;;;
2023/03/01 07:55:19;;;;;;;31.5;20.1;;;;;;;2.55;74.53809;939.0848;;;;
2023/03/01 07:57:46;;;;;;;34.8;22.1;;;;;;;2.35;75.28516;939.1022;;;;
2023/03/01 08:00:11;;;;;;;31.9;21.4;;;;;;;2.51;75.92871;939.141;;;;
2023/03/01 08:02:43;;;;;;;30.6;20;;;;;;;2.78;75.14746;939.101;;;;
2023/03/01 08:05:08;;;;;;;32.3;20.3;;;;;;;2.73;73.81836;939.1103;;;;
2023/03/01 08:07:39;;;;;;;34.4;22.6;;;;;;;2.74;74.22168;939.1036;;;;
2023/03/01 08:10:10;;;;;;;33.4;22.1;;;;;;;2.66;74.30859;939.1214;;;;
2023/03/01 08:12:40;;;;;;;34.8;23.3;;;;;;;2.58;74.68848;939.1558;;;;
2023/03/01 08:15:05;;;;;;;37.4;24.8;;;;;;;2.62;74.55859;939.1614;;;;
2023/03/01 08:17:32;;;;;;;39.3;26.3;;;;;;;2.56;75.32227;939.126;;;;
2023/03/01 08:20:03;;;;;;;34.3;24.1;;;;;;;2.8;74.91699;939.072;;;;
2023/03/01 08:22:27;;;;;;;36.8;24;;;;;;;2.91;73.91602;938.9791;;;;
2023/03/01 08:24:55;;;;;;;34.3;22.7;;;;;;;3.04;72.80566;939.0555;;;;
2023/03/01 08:27:19;;;;;;;36;23.3;;;;;;;3.07;72.95508;939.0878;;;;
2023/03/01 08:29:46;;;;;;;34.7;22.8;;;;;;;3.26;72.47266;939.038;;;;
2023/03/01 08:32:11;;;;;;;36;23.6;;;;;;;3.27;72.1709;939.0298;;;;
2023/03/01 08:34:38;;;;;;;32.9;22;;;;;;;3.07;72.05762;939.0076;;;;
2023/03/01 08:37:03;;;;;;;33.3;22.6;;;;;;;2.9;73.03809;939.0164;;;;
2023/03/01 08:39:28;;;;;;;36.6;23.6;;;;;;;3.06;72.68359;938.9985;;;;
2023/03/01 08:41:58;;;;;;;36.3;24.4;;;;;;;3.27;72.19238;939.0098;;;;
2023/03/01 08:44:23;;;;;;;35.9;24.4;;;;;;;3.35;72.49805;938.9911;;;;
2023/03/01 08:46:55;;;;;;;37.5;24.2;;;;;;;3.64;71.72656;938.8887;;;;
2023/03/01 08:49:18;;;;;;;35.9;24.2;;;;;;;3.68;70.95898;938.9587;;;;
2023/03/01 08:51:44;;;;;;;35.1;23;;;;;;;3.79;71.37012;938.9106;;;;
2023/03/01 08:54:09;;;;;;;33;21.9;;;;;;;4.22;69.23828;938.8211;;;;
2023/03/01 08:56:39;;;;;;;32;20.7;;;;;;;4.68;68.10742;938.743;;;;
2023/03/01 08:59:04;;;;;;;32.8;22.1;;;;;;;5.2;66.49805;938.7704;;;;
2023/03/01 09:01:32;;;;;;;32.8;22.1;;;;;;;5.44;64.45996;938.735;;;;
2023/03/01 09:03:57;;;;;;;32.1;21.1;;;;;;;5.39;63.58301;938.7126;;;;
2023/03/01 09:06:26;;;;;;;29.8;20.2;;;;;;;5.55;63.87695;938.7253;;;;
2023/03/01 09:08:51;;;;;;;26.8;18.4;;;;;;;5.57;62.56055;938.6763;;;;
2023/03/01 09:11:19;;;;;;;29.4;19.8;;;;;;;5.63;62.15234;938.698;;;;
2023/03/01 09:13:45;;;;;;;31.1;21.4;;;;;;;5.61;62.80273;938.552;;;;
2023/03/01 09:16:13;;;;;;;26;19;;;;;;;5.6;61.86621;938.6251;;;;
2023/03/01 09:18:40;;;;;;;27.7;19.3;;;;;;;5.81;61.52344;938.573;;;;
2023/03/01 09:21:07;;;;;;;28.3;19.3;;;;;;;6.18;60.44629;938.5139;;;;
2023/03/01 09:23:39;;;;;;;26.6;19.2;;;;;;;6.68;58.59277;938.4189;;;;
2023/03/01 09:26:04;;;;;;;25.5;18.5;;;;;;;6.5;58.12793;938.4278;;;;
2023/03/01 09:28:33;;;;;;;24.4;18.1;;;;;;;6.12;59.63477;938.4419;;;;
2023/03/01 09:30:58;;;;;;;26.3;18.8;;;;;;;6.07;60.60059;938.3688;;;;
2023/03/01 09:33:30;;;;;;;27.2;19.2;;;;;;;6.12;60.68652;938.5098;;;;
2023/03/01 09:36:02;;;;;;;27;19;;;;;;;6.34;60.1416;938.4283;;;;
2023/03/01 09:38:32;;;;;;;27.3;18.7;;;;;;;7.15;58.1582;938.3409;;;;
2023/03/01 09:40:57;;;;;;;25;17.7;;;;;;;7.61;56.21387;938.3857;;;;
2023/03/01 09:43:26;;;;;;;24.1;18.1;;;;;;;8.11;54.15723;938.3945;;;;
2023/03/01 09:45:52;;;;;;;23;17.5;;;;;;;8.68;52.87598;938.4058;;;;
2023/03/01 09:48:23;;;;;;;23.7;17.8;;;;;;;8.1;54.2002;938.3563;;;;
2023/03/01 09:50:53;;;;;;;23.3;16.3;;;;;;;9.45;50.69336;938.3074;;;;
2023/03/01 09:53:18;;;;;;;24;16.6;;;;;;;10.24;47.85352;938.2913;;;;
2023/03/01 09:55:50;;;;;;;21.1;16.5;;;;;;;10.18;46.92188;938.251;;;;
2023/03/01 09:58:24;;;;;;;19.7;15.4;;;;;;;11.31;45.96875;938.2204;;;;
2023/03/01 10:00:50;;;;;;;18.7;14.8;;;;;;;11.05;45.38281;938.1362;;;;
2023/03/01 10:03:17;;;;;;;18.7;13.9;;;;;;;12.38;42.02344;938.0879;;;;
2023/03/01 10:05:45;;;;;;;18.8;14.7;;;;;;;12.12;42.15918;938.1348;;;;
2023/03/01 10:08:19;;;;;;;20.5;14.7;;;;;;;11.8;43.09082;938.0652;;;;
2023/03/01 10:10:55;;;;;;;18.8;14;;;;;;;12.47;42.30762;938.046;;;;
2023/03/01 10:13:24;;;;;;;18;13.3;;;;;;;12.54;41.70605;938.0229;;;;
2023/03/01 10:16:01;;;;;;;18.1;13.2;;;;;;;13.35;40.37207;937.9811;;;;
2023/03/01 10:18:27;;;;;;;13.7;10.6;;;;;;;14.24;38.7832;937.8714;;;;
2023/03/01 10:21:04;;;;;;;15.7;12.1;;;;;;;14.67;37.54199;937.8497;;;;
2023/03/01 10:23:31;;;;;;;15.3;12;;;;;;;11.26;43.02441;937.8725;;;;
2023/03/01 10:25:56;;;;;;;19;13.9;;;;;;;10.3;46.19336;937.9694;;;;
2023/03/01 10:28:21;;;;;;;18.1;13.3;;;;;;;10.6;46.30469;937.9414;;;;
2023/03/01 10:30:50;;;;;;;16.9;13.1;;;;;;;11.13;44.35059;937.8596;;;;
2023/03/01 10:33:15;;;;;;;19.6;14.6;;;;;;;10.49;45.71094;937.8546;;;;
2023/03/01 10:35:44;;;;;;;19.4;14.7;;;;;;;9.08;49.8291;937.9154;;;;
2023/03/01 10:38:14;;;;;;;19.5;15.3;;;;;;;8.84;49.8125;937.8313;;;;
2023/03/01 10:40:38;;;;;;;19.8;14.3;;;;;;;8.05;51.73242;937.8106;;;;
2023/03/01 10:43:07;;;;;;;20;14.8;;;;;;;8.38;51.45215;937.7509;;;;
2023/03/01 10:45:37;;;;;;;19.1;13.7;;;;;;;7.71;52.81348;937.7831;;;;
2023/03/01 10:48:02;;;;;;;18.3;14.1;;;;;;;9.08;50.2959;937.7081;;;;
2023/03/01 10:50:27;;;;;;;18.4;13.3;;;;;;;10.01;47.72559;937.6278;;;;
2023/03/01 10:52:58;;;;;;;18.9;14.1;;;;;;;10.98;46.18652;937.6152;;;;
2023/03/01 10:55:24;;;;;;;17.3;13.6;;;;;;;9.74;47.78613;937.6467;;;;
2023/03/01 10:57:57;;;;;;;19.2;14.3;;;;;;;9.77;49.14453;937.5158;;;;
2023/03/01 11:00:22;;;;;;;17.2;13.3;;;;;;;10.27;48.23145;937.5458;;;;
2023/03/01 11:02:53;;;;;;;17.8;13.2;;;;;;;10.08;48.2793;937.5394;;;;
2023/03/01 11:05:23;;;;;;;17.5;12.2;;;;;;;10.1;46.99316;937.4998;;;;
2023/03/01 11:07:48;;;;;;;16.9;12.2;;;;;;;10.27;47.08008;937.506;;;;
2023/03/01 11:10:14;;;;;;;15.1;11.7;;;;;;;10.73;45.72461;937.4012;;;;
2023/03/01 11:12:39;;;;;;;15.4;12;;;;;;;10.38;46.56738;937.4568;;;;
2023/03/01 11:15:11;;;;;;;16.7;11.6;;;;;;;10.64;45.64648;937.3864;;;;
2023/03/01 11:17:45;;;;;;;15;11.9;;;;;;;10.65;45.73926;937.3872;;;;
2023/03/01 11:20:19;;;;;;;14.6;11.1;;;;;;;11.06;44.27344;937.2822;;;;
2023/03/01 11:22:44;;;;;;;13.7;10.5;;;;;;;11.58;43.92676;937.3546;;;;
2023/03/01 11:25:12;;;;;;;13;10.4;;;;;;;11.99;43.32617;937.3058;;;;
2023/03/01 11:27:37;;;;;;;13.8;10.7;;;;;;;11.17;44.00977;937.2214;;;;
2023/03/01 11:30:03;;;;;;;19;13.1;;;;;;;11.6;44.01953;937.2853;;;;
2023/03/01 11:32:33;;;;;;;18.5;13.8;;;;;;;10.87;45.33984;937.3173;;;;
2023/03/01 11:34:58;;;;;;;17.9;13;;;;;;;9.82;47.7373;937.3122;;;;
2023/03/01 11:37:24;;;;;;;18.2;14.3;;;;;;;10.79;45.95996;937.3077;;;;
2023/03/01 11:39:53;;;;;;;16.2;12.7;;;;;;;11.22;43.99316;937.1669;;;;
2023/03/01 11:42:19;;;;;;;17.1;12.8;;;;;;;10.41;45.65625;937.2131;;;;
2023/03/01 11:44:45;;;;;;;19.4;14;;;;;;;10.9;45.70801;937.1917;;;;
2023/03/01 11:47:11;;;;;;;17.7;13.5;;;;;;;10.81;45.19727;937.1621;;;;
2023/03/01 11:49:35;;;;;;;17.6;13.1;;;;;;;11.96;43.65527;937.1828;;;;
2023/03/01 11:52:00;;;;;;;16;12.7;;;;;;;12.23;42.58203;937.1319;;;;
2023/03/01 11:54:25;;;;;;;15.2;12.1;;;;;;;11.44;43.15723;937.0742;;;;
2023/03/01 11:56:56;;;;;;;16.8;13.3;;;;;;;10.93;45.14063;937.1448;;;;
2023/03/01 11:59:23;;;;;;;16.2;12.8;;;;;;;10.63;44.72168;937.1506;;;;
2023/03/01 12:01:50;;;;;;;17.5;13;;;;;;;10.94;44.95898;937.1361;;;;
2023/03/01 12:04:16;;;;;;;19;13.7;;;;;;;10.89;45.83398;937.0299;;;;
2023/03/01 12:06:42;;;;;;;19;13.3;;;;;;;12.1;43.09766;937.0923;;;;
2023/03/01 12:09:06;;;;;;;15.9;12.9;;;;;;;13.08;41.51758;937.0863;;;;
2023/03/01 12:11:32;;;;;;;19.5;14.1;;;;;;;13.6;40.03711;936.9888;;;;
2023/03/01 12:14:00;;;;;;;17.4;13.6;;;;;;;12.83;41.50488;937.0217;;;;
2023/03/01 12:16:27;;;;;;;16.5;13.4;;;;;;;14.48;38.77051;936.9756;;;;
2023/03/01 12:18:56;;;;;;;18.8;13.9;;;;;;;13.03;39.66406;937.0201;;;;
2023/03/01 12:21:25;;;;;;;16.8;13;;;;;;;13.37;40.64844;936.9886;;;;
2023/03/01 12:23:54;;;;;;;19.1;13.8;;;;;;;15.02;37.66504;936.9373;;;;
2023/03/01 12:26:26;;;;;;;17.2;13.5;;;;;;;15.84;36.23242;936.8621;;;;
2023/03/01 12:28:55;;;;;;;18.2;14.1;;;;;;;15.93;36.20605;936.8688;;;;
2023/03/01 12:31:28;;;;;;;16.6;13.1;;;;;;;17.33;33.6084;936.8585;;;;
2023/03/01 12:33:51;;;;;;;17.9;13.8;;;;;;;15.65;35.25879;936.7294;;;;
2023/03/01 12:36:16;;;;;;;17.3;13.3;;;;;;;13.09;39.43945;936.7458;;;;
2023/03/01 12:38:46;;;;;;;18.7;14.2;;;;;;;12.16;42.23145;936.8067;;;;
2023/03/01 12:41:14;;;;;;;19.6;14.6;;;;;;;12.34;41.96289;936.7775;;;;
2023/03/01 12:43:43;;;;;;;17.3;13.4;;;;;;;14.65;38.52051;936.7838;;;;
2023/03/01 12:46:12;;;;;;;18.5;13.5;;;;;;;15.43;36.02637;936.7305;;;;
2023/03/01 12:48:42;;;;;;;17.7;13.6;;;;;;;14.39;38.38184;936.6906;;;;
2023/03/01 12:51:07;;;;;;;18.7;13.7;;;;;;;15.39;36.61133;936.6874;;;;
2023/03/01 12:53:32;;;;;;;17.7;13.5;;;;;;;16.87;33.71191;936.7277;;;;
2023/03/01 12:55:57;;;;;;;18.5;13.7;;;;;;;17.94;31.93652;936.7007;;;;
2023/03/01 12:58:24;;;;;;;16.5;13;;;;;;;17.17;32.65625;936.6573;;;;
2023/03/01 13:00:48;;;;;;;18.2;14.2;;;;;;;14.29;37.01465;936.7986;;;;
2023/03/01 13:03:23;;;;;;;19.9;14.5;;;;;;;11.63;42.67188;936.883;;;;
2023/03/01 13:05:51;;;;;;;18.9;14.4;;;;;;;10.23;45.91113;936.8461;;;;
2023/03/01 13:08:16;;;;;;;18.3;14.6;;;;;;;10.97;45.11035;936.8798;;;;
2023/03/01 13:10:43;;;;;;;19;13.7;;;;;;;13.29;41.36523;936.892;;;;
2023/03/01 13:13:08;;;;;;;18.6;14.2;;;;;;;15.97;35.85059;936.8956;;;;
2023/03/01 13:15:36;;;;;;;17.7;13.6;;;;;;;15.94;35.85938;936.8719;;;;
2023/03/01 13:18:04;;;;;;;17.5;13.7;;;;;;;16.85;34.06934;936.8422;;;;
2023/03/01 13:20:29;;;;;;;17.2;13.4;;;;;;;17.13;33.63965;936.8151;;;;
2023/03/01 13:22:54;;;;;;;19.1;13.6;;;;;;;17.89;32.66406;936.7073;;;;
2023/03/01 13:25:22;;;;;;;17;13.6;;;;;;;15.53;35.24805;936.7896;;;;
2023/03/01 13:27:47;;;;;;;19.8;13.3;;;;;;;15.73;35.80762;936.848;;;;
2023/03/01 13:30:16;;;;;;;18.8;13.8;;;;;;;15.93;34.81836;936.8191;;;;
2023/03/01 13:32:41;;;;;;;17.1;13.4;;;;;;;15.44;35.68066;936.7786;;;;
2023/03/01 13:35:15;;;;;;;17.4;13.7;;;;;;;13.67;38.12305;936.8287;;;;
2023/03/01 13:37:44;;;;;;;17.4;14;;;;;;;11.71;42.7832;936.8186;;;;
2023/03/01 13:40:09;;;;;;;18.1;14.2;;;;;;;9.89;46.93652;936.9208;;;;
2023/03/01 13:42:36;;;;;;;19.3;15;;;;;;;9.12;48.99121;936.9135;;;;
2023/03/01 13:45:00;;;;;;;20;15.1;;;;;;;8.44;51.11816;936.9136;;;;
2023/03/01 13:47:25;;;;;;;21.4;15.6;;;;;;;7.88;53.35645;936.9431;;;;
2023/03/01 13:49:53;;;;;;;21.5;16.2;;;;;;;7.06;55.9834;936.8972;;;;
2023/03/01 13:52:19;;;;;;;21.9;16.5;;;;;;;6.51;59.08008;936.9774;;;;
2023/03/01 13:54:44;;;;;;;21.3;16.2;;;;;;;7.06;58.75879;936.8767;;;;
2023/03/01 13:57:09;;;;;;;24.6;15.6;;;;;;;7.12;57.12402;936.8677;;;;
2023/03/01 13:59:34;;;;;;;21.7;16.4;;;;;;;6.91;58.53418;936.8622;;;;
2023/03/01 14:01:59;;;;;;;21.8;15;;;;;;;7.58;56.81152;936.7859;;;;
2023/03/01 14:04:25;;;;;;;22.9;16.5;;;;;;;7.87;55.52148;936.7154;;;;
2023/03/01 14:06:49;;;;;;;23;15.9;;;;;;;7.87;55.29492;936.7408;;;;
2023/03/01 14:09:15;;;;;;;23.5;16.9;;;;;;;7.6;55.70313;936.7285;;;;
2023/03/01 14:11:40;;;;;;;23.7;16.2;;;;;;;7.41;56.44727;936.7238;;;;
2023/03/01 14:14:07;;;;;;;22.1;16.7;;;;;;;6.95;58.23438;936.6005;;;;
2023/03/01 14:16:32;;;;;;;23;17.2;;;;;;;6.46;59.85254;936.5588;;;;
2023/03/01 14:19:02;;;;;;;23.7;17.9;;;;;;;6.05;61.99805;936.5859;;;;
2023/03/01 14:21:27;;;;;;;23.6;17.4;;;;;;;5.58;63.08203;936.5528;;;;
2023/03/01 14:23:57;;;;;;;22.9;17.4;;;;;;;5.28;64.43555;936.5053;;;;
2023/03/01 14:26:23;;;;;;;26.2;18.1;;;;;;;5.63;64.47754;936.48;;;;
2023/03/01 14:28:50;;;;;;;25.9;18.4;;;;;;;5.41;64.52344;936.5455;;;;
2023/03/01 14:31:15;;;;;;;26.3;18.2;;;;;;;5.31;65.91895;936.5686;;;;
2023/03/01 14:33:41;;;;;;;26.1;18;;;;;;;4.95;66.49414;936.5095;;;;
2023/03/01 14:36:05;;;;;;;27.9;18.9;;;;;;;4.8;67.61914;936.5689;;;;
2023/03/01 14:38:36;;;;;;;28.9;20.2;;;;;;;4.89;67.93848;936.5581;;;;
2023/03/01 14:41:05;;;;;;;28.1;19.6;;;;;;;5.12;66.8916;936.5204;;;;
2023/03/01 14:43:30;;;;;;;24.9;17.9;;;;;;;5.31;66.08789;936.5322;;;;
2023/03/01 14:45:55;;;;;;;27.6;19.5;;;;;;;5.2;66.66797;936.4525;;;;
2023/03/01 14:48:23;;;;;;;27.8;19.2;;;;;;;5.29;66.73828;936.5396;;;;
2023/03/01 14:50:48;;;;;;;26.8;18.8;;;;;;;5.31;66.82129;936.4485;;;;
2023/03/01 14:53:16;;;;;;;25.1;18.4;;;;;;;5.24;66.26758;936.49;;;;
2023/03/01 14:55:41;;;;;;;24.6;18;;;;;;;5.09;66.3457;936.44;;;;
2023/03/01 14:58:08;;;;;;;28.2;19.8;;;;;;;4.61;69.29004;936.5123;;;;
2023/03/01 15:00:33;;;;;;;28.7;19.4;;;;;;;4.23;70.83691;936.4911;;;;
2023/03/01 15:02:59;;;;;;;27.5;20.1;;;;;;;4.04;71.77246;936.4188;;;;
2023/03/01 15:05:24;;;;;;;27.8;19.3;;;;;;;4.18;71.07715;936.4388;;;;
2023/03/01 15:07:54;;;;;;;28.2;20.1;;;;;;;4.09;71.02637;936.4289;;;;
2023/03/01 15:10:24;;;;;;;28.6;20.8;;;;;;;3.82;72.25195;936.4045;;;;
2023/03/01 15:12:49;;;;;;;30.4;20.6;;;;;;;3.95;72.6123;936.4977;;;;
2023/03/01 15:15:20;;;;;;;28.1;19.7;;;;;;;3.79;72.32617;936.5828;;;;
2023/03/01 15:17:47;;;;;;;33.2;22;;;;;;;3.98;73.30371;936.5413;;;;
2023/03/01 15:20:16;;;;;;;28.8;20;;;;;;;4.03;72.62793;936.5573;;;;
2023/03/01 15:22:40;;;;;;;32.1;22.4;;;;;;;4.2;72.6084;936.5662;;;;
2023/03/01 15:25:12;;;;;;;33.9;20.9;;;;;;;4.07;71.87988;936.5648;;;;
2023/03/01 15:27:41;;;;;;;32;21.7;;;;;;;4.05;72.5166;936.5446;;;;
2023/03/01 15:30:06;;;;;;;31.1;21.7;;;;;;;3.93;72.83398;936.5633;;;;
2023/03/01 15:32:33;;;;;;;30.4;21.1;;;;;;;3.42;74.02734;936.5793;;;;
2023/03/01 15:34:58;;;;;;;29.6;21;;;;;;;3.15;75.32715;936.587;;;;
2023/03/01 15:37:27;;;;;;;34.2;23.4;;;;;;;2.87;77.01563;936.6825;;;;